Time,TemperatureF,DewpointF,PressureIn,WindDirection,WindDirectionDegrees,WindSpeedMPH,WindSpeedGustMPH,Humidity,HourlyPrecipIn,Conditions,Clouds,dailyrainin,SoftwareType,DateUTC
2013-08-22 00:04:00,72.0,-99.9,-100.00,SW,236,5.0,10.0,-999,0.00,,,-99.99,,2013-08-22 04:04:00,
2013-08-22 00:14:00,72.0,-99.9,-100.00,SW,236,5.0,10.0,-999,0.00,,,-99.99,,2013-08-22 04:14:00,
2013-08-22 00:44:00,72.0,-99.9,-100.00,SW,235,6.0,10.0,-999,0.00,,,-99.99,,2013-08-22 04:44:00,
2013-08-22 00:54:00,72.0,-99.9,-100.00,SW,235,6.0,10.0,-999,0.00,,,-99.99,,2013-08-22 04:54:00,
2013-08-22 01:03:00,72.0,-99.9,-100.00,SW,235,6.0,10.0,-999,0.00,,,-99.99,,2013-08-22 05:03:00,
2013-08-22 01:13:00,72.0,-99.9,-100.00,SW,235,6.0,10.0,-999,0.00,,,-99.99,,2013-08-22 05:13:00,
2013-08-22 01:43:00,71.0,-99.9,-100.00,SW,228,4.0,8.0,-999,0.00,,,-99.99,,2013-08-22 05:43:00,
2013-08-22 01:53:00,71.0,-99.9,-100.00,SW,228,4.0,8.0,-999,0.00,,,-99.99,,2013-08-22 05:53:00,
2013-08-22 02:02:00,71.0,-99.9,-100.00,SW,228,4.0,8.0,-999,0.00,,,-99.99,,2013-08-22 06:02:00,
2013-08-22 02:12:00,71.0,-99.9,-100.00,SW,228,4.0,8.0,-999,0.00,,,-99.99,,2013-08-22 06:12:00,
2013-08-22 02:42:00,71.0,-99.9,-100.00,WSW,239,5.0,9.0,-999,-99.99,,,-99.99,,2013-08-22 06:42:00,
2013-08-22 02:52:00,71.0,-99.9,-100.00,WSW,239,5.0,9.0,-999,-99.99,,,-99.99,,2013-08-22 06:52:00,
2013-08-22 03:02:00,71.0,-99.9,-100.00,WSW,239,5.0,9.0,-999,-99.99,,,-99.99,,2013-08-22 07:02:00,
2013-08-22 03:12:00,71.0,-99.9,-100.00,WSW,239,5.0,9.0,-999,-99.99,,,-99.99,,2013-08-22 07:12:00,
2013-08-22 03:42:00,71.0,-99.9,-100.00,SW,228,4.0,6.0,-999,0.00,,,-99.99,,2013-08-22 07:42:00,
2013-08-22 03:53:00,71.0,-99.9,-100.00,SW,228,4.0,6.0,-999,0.00,,,-99.99,,2013-08-22 07:53:00,
2013-08-22 04:03:00,71.0,-99.9,-100.00,SW,228,4.0,6.0,-999,0.00,,,-99.99,,2013-08-22 08:03:00,
2013-08-22 04:12:00,71.0,-99.9,-100.00,SW,228,4.0,6.0,-999,0.00,,,-99.99,,2013-08-22 08:12:00,
2013-08-22 04:53:00,70.0,-99.9,-100.00,SW,215,3.0,4.0,-999,0.00,,,-99.99,,2013-08-22 08:53:00,
2013-08-22 05:01:00,70.0,-99.9,-100.00,SW,215,3.0,4.0,-999,0.00,,,-99.99,,2013-08-22 09:01:00,
2013-08-22 05:11:00,70.0,-99.9,-100.00,SW,215,3.0,4.0,-999,0.00,,,-99.99,,2013-08-22 09:11:00,
2013-08-22 05:43:00,71.0,-99.9,-100.00,SW,224,6.0,7.0,-999,0.00,,,-99.99,,2013-08-22 09:43:00,
2013-08-22 05:54:00,71.0,-99.9,-100.00,SW,224,6.0,7.0,-999,0.00,,,-99.99,,2013-08-22 09:54:00,
2013-08-22 06:04:00,71.0,-99.9,-100.00,SW,224,6.0,7.0,-999,0.00,,,-99.99,,2013-08-22 10:04:00,
2013-08-22 06:12:00,71.0,-99.9,-100.00,SW,224,6.0,7.0,-999,0.00,,,-99.99,,2013-08-22 10:12:00,
2013-08-22 06:15:00,71.0,-99.9,-100.00,SW,229,3.0,5.0,-999,0.00,,,-99.99,,2013-08-22 10:15:00,
2013-08-22 06:42:00,71.0,-99.9,-100.00,SW,229,3.0,5.0,-999,0.00,,,-99.99,,2013-08-22 10:42:00,
2013-08-22 08:42:00,72.0,-99.9,-100.00,SW,215,7.0,9.0,-999,0.00,,,-99.99,,2013-08-22 12:42:00,
2013-08-22 08:52:00,72.0,-99.9,-100.00,SW,215,7.0,9.0,-999,0.00,,,-99.99,,2013-08-22 12:52:00,
2013-08-22 09:02:00,72.0,-99.9,-100.00,SW,215,7.0,9.0,-999,0.00,,,-99.99,,2013-08-22 13:02:00,
2013-08-22 09:12:00,72.0,-99.9,-100.00,SW,215,7.0,9.0,-999,0.00,,,-99.99,,2013-08-22 13:12:00,
2013-08-22 09:42:00,72.0,-99.9,-100.00,SW,231,5.0,6.0,-999,0.00,,,-99.99,,2013-08-22 13:42:00,
2013-08-22 09:52:00,72.0,-99.9,-100.00,SW,231,5.0,6.0,-999,0.00,,,-99.99,,2013-08-22 13:52:00,
2013-08-22 10:02:00,72.0,-99.9,-100.00,SW,231,5.0,6.0,-999,0.00,,,-99.99,,2013-08-22 14:02:00,
2013-08-22 10:11:00,72.0,-99.9,-100.00,SW,231,5.0,6.0,-999,0.00,,,-99.99,,2013-08-22 14:11:00,
2013-08-22 10:42:00,71.0,-99.9,-100.00,SSW,211,5.0,7.0,-999,0.00,,,-99.99,,2013-08-22 14:42:00,
2013-08-22 10:52:00,71.0,-99.9,-100.00,SSW,211,5.0,7.0,-999,0.00,,,-99.99,,2013-08-22 14:52:00,
2013-08-22 11:02:00,71.0,-99.9,-100.00,SSW,211,5.0,7.0,-999,0.00,,,-99.99,,2013-08-22 15:02:00,
2013-08-22 11:12:00,71.0,-99.9,-100.00,SSW,211,5.0,7.0,-999,0.00,,,-99.99,,2013-08-22 15:12:00,
2013-08-22 11:44:00,73.0,-99.9,-100.00,SSW,203,9.0,12.0,-999,0.00,,,0.04,,2013-08-22 15:44:00,
2013-08-22 11:55:00,73.0,-99.9,-100.00,SSW,203,9.0,12.0,-999,0.00,,,0.04,,2013-08-22 15:55:00,
2013-08-22 12:05:00,73.0,-99.9,-100.00,SSW,203,9.0,12.0,-999,0.00,,,0.04,,2013-08-22 16:05:00,
2013-08-22 12:14:00,73.0,-99.9,-100.00,SSW,203,9.0,12.0,-999,0.00,,,0.04,,2013-08-22 16:14:00,
2013-08-22 12:44:00,75.0,-99.9,-100.00,WNW,290,7.0,12.0,-999,-99.99,,,0.04,,2013-08-22 16:44:00,
2013-08-22 12:54:00,75.0,-99.9,-100.00,WNW,290,7.0,12.0,-999,-99.99,,,0.04,,2013-08-22 16:54:00,
2013-08-22 13:02:00,75.0,-99.9,-100.00,WNW,290,7.0,12.0,-999,-99.99,,,0.04,,2013-08-22 17:02:00,
2013-08-22 13:12:00,75.0,-99.9,-100.00,WNW,290,7.0,12.0,-999,-99.99,,,0.04,,2013-08-22 17:12:00,
2013-08-22 13:43:00,77.0,-99.9,-100.00,WNW,298,6.0,8.0,-999,-99.99,,,0.04,,2013-08-22 17:43:00,
2013-08-22 13:53:00,77.0,-99.9,-100.00,WNW,298,6.0,8.0,-999,-99.99,,,0.04,,2013-08-22 17:53:00,
2013-08-22 14:02:00,77.0,-99.9,-100.00,WNW,298,6.0,8.0,-999,-99.99,,,0.04,,2013-08-22 18:02:00,
2013-08-22 14:12:00,77.0,-99.9,-100.00,WNW,298,6.0,8.0,-999,-99.99,,,0.04,,2013-08-22 18:12:00,
2013-08-22 14:43:00,78.0,-99.9,-100.00,South,181,7.0,11.0,-999,-99.99,,,0.05,,2013-08-22 18:43:00,
2013-08-22 14:52:00,78.0,-99.9,-100.00,South,181,7.0,11.0,-999,-99.99,,,0.05,,2013-08-22 18:52:00,
2013-08-22 15:02:00,78.0,-99.9,-100.00,South,181,7.0,11.0,-999,-99.99,,,0.05,,2013-08-22 19:02:00,
2013-08-22 15:11:00,78.0,-99.9,-100.00,South,181,7.0,11.0,-999,-99.99,,,0.05,,2013-08-22 19:11:00,
2013-08-22 15:42:00,77.0,-99.9,-100.00,SSW,198,8.0,12.0,-999,-99.99,,,0.05,,2013-08-22 19:42:00,
2013-08-22 15:53:00,77.0,-99.9,-100.00,SSW,198,8.0,12.0,-999,-99.99,,,0.05,,2013-08-22 19:53:00,
2013-08-22 16:02:00,77.0,-99.9,-100.00,SSW,198,8.0,12.0,-999,-99.99,,,0.05,,2013-08-22 20:02:00,
2013-08-22 16:12:00,77.0,-99.9,-100.00,SSW,198,8.0,12.0,-999,-99.99,,,0.05,,2013-08-22 20:12:00,
2013-08-22 16:42:00,74.0,-99.9,-100.00,SSW,204,9.0,12.0,-999,-99.99,,,0.06,,2013-08-22 20:42:00,
2013-08-22 16:52:00,74.0,-99.9,-100.00,SSW,204,9.0,12.0,-999,-99.99,,,0.06,,2013-08-22 20:52:00,
2013-08-22 17:03:00,74.0,-99.9,-100.00,SSW,204,9.0,12.0,-999,-99.99,,,0.06,,2013-08-22 21:03:00,
2013-08-22 17:13:00,74.0,-99.9,-100.00,SSW,204,9.0,12.0,-999,-99.99,,,0.06,,2013-08-22 21:13:00,
2013-08-22 17:44:00,73.0,-99.9,-100.00,South,188,5.0,15.0,-999,-99.99,,,0.06,,2013-08-22 21:44:00,
2013-08-22 17:54:00,73.0,-99.9,-100.00,South,188,5.0,15.0,-999,-99.99,,,0.06,,2013-08-22 21:54:00,
2013-08-22 18:05:00,73.0,-99.9,-100.00,South,188,5.0,15.0,-999,-99.99,,,0.06,,2013-08-22 22:05:00,
2013-08-22 18:13:00,73.0,-99.9,-100.00,South,188,5.0,15.0,-999,-99.99,,,0.06,,2013-08-22 22:13:00,
2013-08-22 18:53:00,73.0,-99.9,-100.00,SW,222,11.0,14.0,-999,-99.99,,,0.06,,2013-08-22 22:53:00,
2013-08-22 19:03:00,73.0,-99.9,-100.00,SW,222,11.0,14.0,-999,-99.99,,,0.06,,2013-08-22 23:03:00,
2013-08-22 19:12:00,73.0,-99.9,-100.00,SW,222,11.0,14.0,-999,-99.99,,,0.06,,2013-08-22 23:12:00,
2013-08-22 19:53:00,73.0,-99.9,-100.00,SW,232,9.0,11.0,-999,0.00,,,0.07,,2013-08-22 23:53:00,
2013-08-22 20:02:00,73.0,-99.9,-100.00,SW,232,9.0,11.0,-999,0.00,,,0.07,,2013-08-23 00:02:00,
2013-08-22 20:12:00,73.0,-99.9,-100.00,SW,232,9.0,11.0,-999,0.00,,,0.07,,2013-08-23 00:12:00,
2013-08-22 21:42:00,71.0,-99.9,-100.00,SW,222,7.0,10.0,-999,0.00,,,0.07,,2013-08-23 01:42:00,
2013-08-22 21:52:00,71.0,-99.9,-100.00,SW,222,7.0,10.0,-999,0.00,,,0.07,,2013-08-23 01:52:00,
2013-08-22 22:02:00,71.0,-99.9,-100.00,SW,222,7.0,10.0,-999,0.00,,,0.07,,2013-08-23 02:02:00,
2013-08-22 22:11:00,71.0,-99.9,-100.00,SW,222,7.0,10.0,-999,0.00,,,0.07,,2013-08-23 02:11:00,